sensor_id;sensor_type;location;lat;lon;timestamp;P1;durP1;ratioP1;P2;durP2;ratioP2
19969;SDS011;10146;47.754;9.566;2023-04-03T00:01:11;4.35;;;4.05;;
19969;SDS011;10146;47.754;9.566;2023-04-03T00:03:37;4.75;;;4.35;;
19969;SDS011;10146;47.754;9.566;2023-04-03T00:06:03;5.18;;;4.70;;
19969;SDS011;10146;47.754;9.566;2023-04-03T00:08:31;4.72;;;4.32;;
19969;SDS011;10146;47.754;9.566;2023-04-03T00:10:57;4.68;;;4.38;;
19969;SDS011;10146;47.754;9.566;2023-04-03T00:13:23;4.65;;;4.35;;
19969;SDS011;10146;47.754;9.566;2023-04-03T00:15:50;5.05;;;4.65;;
19969;SDS011;10146;47.754;9.566;2023-04-03T00:18:17;5.22;;;4.82;;
19969;SDS011;10146;47.754;9.566;2023-04-03T00:20:43;5.47;;;4.97;;
19969;SDS011;10146;47.754;9.566;2023-04-03T00:23:08;4.90;;;4.50;;
19969;SDS011;10146;47.754;9.566;2023-04-03T00:25:34;5.40;;;4.90;;
19969;SDS011;10146;47.754;9.566;2023-04-03T00:28:01;4.43;;;4.05;;
19969;SDS011;10146;47.754;9.566;2023-04-03T00:30:26;4.65;;;4.25;;
19969;SDS011;10146;47.754;9.566;2023-04-03T00:32:52;4.70;;;4.28;;
19969;SDS011;10146;47.754;9.566;2023-04-03T00:35:18;4.80;;;4.38;;
19969;SDS011;10146;47.754;9.566;2023-04-03T00:37:45;4.75;;;4.35;;
19969;SDS011;10146;47.754;9.566;2023-04-03T00:40:11;4.35;;;3.95;;
19969;SDS011;10146;47.754;9.566;2023-04-03T00:42:39;4.80;;;4.40;;
19969;SDS011;10146;47.754;9.566;2023-04-03T00:47:38;5.20;;;4.80;;
19969;SDS011;10146;47.754;9.566;2023-04-03T00:50:06;4.97;;;4.57;;
19969;SDS011;10146;47.754;9.566;2023-04-03T00:52:32;5.15;;;4.75;;
19969;SDS011;10146;47.754;9.566;2023-04-03T00:54:59;5.15;;;4.65;;
19969;SDS011;10146;47.754;9.566;2023-04-03T00:57:27;5.03;;;4.63;;
19969;SDS011;10146;47.754;9.566;2023-04-03T00:59:56;5.18;;;4.40;;
19969;SDS011;10146;47.754;9.566;2023-04-03T01:02:24;5.28;;;4.88;;
19969;SDS011;10146;47.754;9.566;2023-04-03T01:04:50;5.80;;;5.30;;
19969;SDS011;10146;47.754;9.566;2023-04-03T01:07:17;5.72;;;5.20;;
19969;SDS011;10146;47.754;9.566;2023-04-03T01:09:47;5.70;;;5.28;;
19969;SDS011;10146;47.754;9.566;2023-04-03T01:12:22;5.97;;;5.47;;
19969;SDS011;10146;47.754;9.566;2023-04-03T01:14:51;5.82;;;5.32;;
19969;SDS011;10146;47.754;9.566;2023-04-03T01:17:33;5.90;;;5.43;;
19969;SDS011;10146;47.754;9.566;2023-04-03T01:22:46;6.63;;;6.03;;
19969;SDS011;10146;47.754;9.566;2023-04-03T01:25:23;5.95;;;5.43;;
19969;SDS011;10146;47.754;9.566;2023-04-03T01:27:49;6.78;;;6.10;;
19969;SDS011;10146;47.754;9.566;2023-04-03T01:30:17;6.70;;;6.20;;
19969;SDS011;10146;47.754;9.566;2023-04-03T01:32:45;7.00;;;6.30;;
19969;SDS011;10146;47.754;9.566;2023-04-03T01:35:11;6.82;;;6.22;;
19969;SDS011;10146;47.754;9.566;2023-04-03T01:37:37;6.53;;;6.00;;
19969;SDS011;10146;47.754;9.566;2023-04-03T01:40:03;7.45;;;6.78;;
19969;SDS011;10146;47.754;9.566;2023-04-03T01:42:29;6.53;;;5.93;;
19969;SDS011;10146;47.754;9.566;2023-04-03T01:44:55;6.65;;;6.05;;
19969;SDS011;10146;47.754;9.566;2023-04-03T01:47:21;7.15;;;6.50;;
19969;SDS011;10146;47.754;9.566;2023-04-03T01:49:46;7.35;;;6.75;;
19969;SDS011;10146;47.754;9.566;2023-04-03T01:52:12;7.15;;;6.53;;
19969;SDS011;10146;47.754;9.566;2023-04-03T01:54:38;6.95;;;6.22;;
19969;SDS011;10146;47.754;9.566;2023-04-03T01:57:03;7.03;;;6.35;;
19969;SDS011;10146;47.754;9.566;2023-04-03T01:59:29;6.95;;;6.28;;
19969;SDS011;10146;47.754;9.566;2023-04-03T02:01:55;6.40;;;5.80;;
19969;SDS011;10146;47.754;9.566;2023-04-03T02:04:20;7.20;;;6.57;;
19969;SDS011;10146;47.754;9.566;2023-04-03T02:06:46;7.45;;;6.85;;
19969;SDS011;10146;47.754;9.566;2023-04-03T02:09:12;7.28;;;6.57;;
19969;SDS011;10146;47.754;9.566;2023-04-03T02:11:37;8.27;;;6.50;;
19969;SDS011;10146;47.754;9.566;2023-04-03T02:14:03;7.45;;;6.75;;
19969;SDS011;10146;47.754;9.566;2023-04-03T02:16:29;7.18;;;6.47;;
19969;SDS011;10146;47.754;9.566;2023-04-03T02:18:55;7.32;;;6.72;;
19969;SDS011;10146;47.754;9.566;2023-04-03T02:21:21;7.38;;;6.68;;
19969;SDS011;10146;47.754;9.566;2023-04-03T02:23:47;7.05;;;6.35;;
19969;SDS011;10146;47.754;9.566;2023-04-03T02:26:13;7.40;;;6.68;;
19969;SDS011;10146;47.754;9.566;2023-04-03T02:28:40;9.80;;;7.22;;
19969;SDS011;10146;47.754;9.566;2023-04-03T02:31:06;7.82;;;7.15;;
19969;SDS011;10146;47.754;9.566;2023-04-03T02:33:33;7.90;;;7.20;;
19969;SDS011;10146;47.754;9.566;2023-04-03T02:36:01;8.02;;;7.22;;
19969;SDS011;10146;47.754;9.566;2023-04-03T02:38:28;8.25;;;7.55;;
19969;SDS011;10146;47.754;9.566;2023-04-03T02:40:53;8.65;;;7.07;;
19969;SDS011;10146;47.754;9.566;2023-04-03T02:43:32;7.43;;;6.72;;
19969;SDS011;10146;47.754;9.566;2023-04-03T02:45:57;7.50;;;6.70;;
19969;SDS011;10146;47.754;9.566;2023-04-03T02:48:23;7.70;;;6.90;;
19969;SDS011;10146;47.754;9.566;2023-04-03T02:50:49;7.28;;;6.57;;
19969;SDS011;10146;47.754;9.566;2023-04-03T02:53:15;7.22;;;6.53;;
19969;SDS011;10146;47.754;9.566;2023-04-03T02:55:41;7.45;;;6.75;;
19969;SDS011;10146;47.754;9.566;2023-04-03T02:58:06;7.38;;;6.60;;
19969;SDS011;10146;47.754;9.566;2023-04-03T03:00:32;7.10;;;6.50;;
19969;SDS011;10146;47.754;9.566;2023-04-03T03:02:58;7.15;;;6.45;;
19969;SDS011;10146;47.754;9.566;2023-04-03T03:05:24;6.80;;;6.20;;
19969;SDS011;10146;47.754;9.566;2023-04-03T03:07:51;8.15;;;6.68;;
19969;SDS011;10146;47.754;9.566;2023-04-03T03:10:16;7.32;;;6.28;;
19969;SDS011;10146;47.754;9.566;2023-04-03T03:12:42;7.53;;;6.82;;
19969;SDS011;10146;47.754;9.566;2023-04-03T03:15:08;7.35;;;6.50;;
19969;SDS011;10146;47.754;9.566;2023-04-03T03:17:33;7.57;;;6.80;;
19969;SDS011;10146;47.754;9.566;2023-04-03T03:20:00;7.30;;;6.60;;
19969;SDS011;10146;47.754;9.566;2023-04-03T03:22:27;7.40;;;6.55;;
19969;SDS011;10146;47.754;9.566;2023-04-03T03:24:53;6.40;;;5.90;;
19969;SDS011;10146;47.754;9.566;2023-04-03T03:27:18;6.05;;;5.55;;
19969;SDS011;10146;47.754;9.566;2023-04-03T03:29:44;6.82;;;6.15;;
19969;SDS011;10146;47.754;9.566;2023-04-03T03:32:09;6.75;;;6.15;;
19969;SDS011;10146;47.754;9.566;2023-04-03T03:34:35;6.30;;;5.70;;
19969;SDS011;10146;47.754;9.566;2023-04-03T03:37:01;5.88;;;5.38;;
19969;SDS011;10146;47.754;9.566;2023-04-03T03:39:26;7.03;;;6.32;;
19969;SDS011;10146;47.754;9.566;2023-04-03T03:41:52;5.90;;;5.40;;
19969;SDS011;10146;47.754;9.566;2023-04-03T03:44:18;6.80;;;6.10;;
19969;SDS011;10146;47.754;9.566;2023-04-03T03:46:44;6.45;;;5.40;;
19969;SDS011;10146;47.754;9.566;2023-04-03T03:49:10;6.88;;;5.93;;
19969;SDS011;10146;47.754;9.566;2023-04-03T03:51:36;7.50;;;6.80;;
19969;SDS011;10146;47.754;9.566;2023-04-03T03:54:02;6.60;;;6.00;;
19969;SDS011;10146;47.754;9.566;2023-04-03T03:56:28;7.30;;;6.55;;
19969;SDS011;10146;47.754;9.566;2023-04-03T03:58:54;6.68;;;5.85;;
19969;SDS011;10146;47.754;9.566;2023-04-03T04:01:21;7.07;;;6.38;;
19969;SDS011;10146;47.754;9.566;2023-04-03T04:03:48;6.25;;;5.65;;
19969;SDS011;10146;47.754;9.566;2023-04-03T04:06:13;6.43;;;5.80;;
19969;SDS011;10146;47.754;9.566;2023-04-03T04:08:39;6.32;;;5.72;;
19969;SDS011;10146;47.754;9.566;2023-04-03T04:11:05;6.60;;;6.03;;
19969;SDS011;10146;47.754;9.566;2023-04-03T04:13:31;6.68;;;6.07;;
19969;SDS011;10146;47.754;9.566;2023-04-03T04:15:57;6.47;;;5.90;;
19969;SDS011;10146;47.754;9.566;2023-04-03T04:18:22;7.32;;;6.63;;
19969;SDS011;10146;47.754;9.566;2023-04-03T04:20:48;6.68;;;6.07;;
19969;SDS011;10146;47.754;9.566;2023-04-03T04:23:16;6.40;;;5.80;;
19969;SDS011;10146;47.754;9.566;2023-04-03T04:25:46;6.75;;;6.15;;
19969;SDS011;10146;47.754;9.566;2023-04-03T04:28:15;7.13;;;6.20;;
19969;SDS011;10146;47.754;9.566;2023-04-03T04:30:41;6.03;;;5.50;;
19969;SDS011;10146;47.754;9.566;2023-04-03T04:33:06;6.65;;;5.97;;
19969;SDS011;10146;47.754;9.566;2023-04-03T04:35:32;5.88;;;5.38;;
19969;SDS011;10146;47.754;9.566;2023-04-03T04:37:58;6.68;;;6.05;;
19969;SDS011;10146;47.754;9.566;2023-04-03T04:40:24;6.45;;;5.80;;
19969;SDS011;10146;47.754;9.566;2023-04-03T04:42:50;6.63;;;5.82;;
19969;SDS011;10146;47.754;9.566;2023-04-03T04:45:17;6.95;;;5.70;;
19969;SDS011;10146;47.754;9.566;2023-04-03T04:47:43;5.63;;;5.03;;
19969;SDS011;10146;47.754;9.566;2023-04-03T04:50:09;6.20;;;5.60;;
19969;SDS011;10146;47.754;9.566;2023-04-03T04:52:36;8.18;;;5.28;;
19969;SDS011;10146;47.754;9.566;2023-04-03T04:55:02;6.30;;;5.70;;
19969;SDS011;10146;47.754;9.566;2023-04-03T04:57:28;5.55;;;5.05;;
19969;SDS011;10146;47.754;9.566;2023-04-03T04:59:54;6.10;;;5.60;;
19969;SDS011;10146;47.754;9.566;2023-04-03T05:02:20;6.03;;;5.53;;
19969;SDS011;10146;47.754;9.566;2023-04-03T05:04:45;5.93;;;5.28;;
19969;SDS011;10146;47.754;9.566;2023-04-03T05:07:11;5.75;;;5.18;;
19969;SDS011;10146;47.754;9.566;2023-04-03T05:09:37;6.43;;;4.82;;
19969;SDS011;10146;47.754;9.566;2023-04-03T05:12:02;5.50;;;5.00;;
19969;SDS011;10146;47.754;9.566;2023-04-03T05:14:28;5.55;;;5.00;;
19969;SDS011;10146;47.754;9.566;2023-04-03T05:16:54;5.53;;;5.03;;
19969;SDS011;10146;47.754;9.566;2023-04-03T05:19:20;5.47;;;4.97;;
19969;SDS011;10146;47.754;9.566;2023-04-03T05:21:46;5.18;;;4.78;;
19969;SDS011;10146;47.754;9.566;2023-04-03T05:24:13;5.65;;;4.95;;
19969;SDS011;10146;47.754;9.566;2023-04-03T05:26:39;6.32;;;5.32;;
19969;SDS011;10146;47.754;9.566;2023-04-03T05:29:05;5.57;;;5.07;;
19969;SDS011;10146;47.754;9.566;2023-04-03T05:31:31;5.22;;;4.72;;
19969;SDS011;10146;47.754;9.566;2023-04-03T05:33:57;5.57;;;5.03;;
19969;SDS011;10146;47.754;9.566;2023-04-03T05:36:23;5.50;;;4.97;;
19969;SDS011;10146;47.754;9.566;2023-04-03T05:38:49;5.00;;;4.50;;
19969;SDS011;10146;47.754;9.566;2023-04-03T05:41:15;6.10;;;4.70;;
19969;SDS011;10146;47.754;9.566;2023-04-03T05:43:41;4.97;;;4.53;;
19969;SDS011;10146;47.754;9.566;2023-04-03T05:46:09;5.18;;;4.65;;
19969;SDS011;10146;47.754;9.566;2023-04-03T05:48:38;6.38;;;5.20;;
19969;SDS011;10146;47.754;9.566;2023-04-03T05:51:04;5.13;;;4.45;;
19969;SDS011;10146;47.754;9.566;2023-04-03T05:53:31;4.97;;;4.47;;
19969;SDS011;10146;47.754;9.566;2023-04-03T05:56:00;5.45;;;4.95;;
19969;SDS011;10146;47.754;9.566;2023-04-03T05:58:26;4.97;;;4.43;;
19969;SDS011;10146;47.754;9.566;2023-04-03T06:00:51;4.95;;;4.55;;
19969;SDS011;10146;47.754;9.566;2023-04-03T06:03:17;4.75;;;4.32;;
19969;SDS011;10146;47.754;9.566;2023-04-03T06:05:43;5.28;;;4.78;;
19969;SDS011;10146;47.754;9.566;2023-04-03T06:08:08;5.32;;;4.82;;
19969;SDS011;10146;47.754;9.566;2023-04-03T06:10:34;5.35;;;4.85;;
19969;SDS011;10146;47.754;9.566;2023-04-03T06:13:01;4.97;;;4.47;;
19969;SDS011;10146;47.754;9.566;2023-04-03T06:15:27;4.70;;;4.22;;
19969;SDS011;10146;47.754;9.566;2023-04-03T06:17:53;8.20;;;4.97;;
19969;SDS011;10146;47.754;9.566;2023-04-03T06:20:18;5.47;;;4.85;;
19969;SDS011;10146;47.754;9.566;2023-04-03T06:22:45;7.28;;;4.55;;
19969;SDS011;10146;47.754;9.566;2023-04-03T06:25:11;5.32;;;4.90;;
19969;SDS011;10146;47.754;9.566;2023-04-03T06:27:37;5.20;;;4.40;;
19969;SDS011;10146;47.754;9.566;2023-04-03T06:30:03;5.03;;;4.22;;
19969;SDS011;10146;47.754;9.566;2023-04-03T06:32:29;5.10;;;4.60;;
19969;SDS011;10146;47.754;9.566;2023-04-03T06:34:55;5.68;;;5.07;;
19969;SDS011;10146;47.754;9.566;2023-04-03T06:37:22;5.78;;;5.03;;
19969;SDS011;10146;47.754;9.566;2023-04-03T06:39:50;6.00;;;4.60;;
19969;SDS011;10146;47.754;9.566;2023-04-03T06:42:16;5.18;;;4.63;;
19969;SDS011;10146;47.754;9.566;2023-04-03T06:44:42;5.32;;;4.65;;
19969;SDS011;10146;47.754;9.566;2023-04-03T06:47:09;5.40;;;4.80;;
19969;SDS011;10146;47.754;9.566;2023-04-03T06:49:37;5.15;;;4.72;;
19969;SDS011;10146;47.754;9.566;2023-04-03T06:52:03;5.65;;;4.30;;
19969;SDS011;10146;47.754;9.566;2023-04-03T06:54:29;5.13;;;4.65;;
19969;SDS011;10146;47.754;9.566;2023-04-03T06:56:55;6.88;;;5.10;;
19969;SDS011;10146;47.754;9.566;2023-04-03T06:59:20;5.22;;;4.72;;
19969;SDS011;10146;47.754;9.566;2023-04-03T07:01:46;5.80;;;5.30;;
19969;SDS011;10146;47.754;9.566;2023-04-03T07:04:12;5.75;;;4.80;;
19969;SDS011;10146;47.754;9.566;2023-04-03T07:06:38;4.95;;;4.38;;
19969;SDS011;10146;47.754;9.566;2023-04-03T07:09:03;5.18;;;4.68;;
19969;SDS011;10146;47.754;9.566;2023-04-03T07:11:29;5.15;;;4.68;;
19969;SDS011;10146;47.754;9.566;2023-04-03T07:13:55;5.50;;;5.00;;
19969;SDS011;10146;47.754;9.566;2023-04-03T07:16:21;6.32;;;5.13;;
19969;SDS011;10146;47.754;9.566;2023-04-03T07:18:47;5.95;;;5.38;;
19969;SDS011;10146;47.754;9.566;2023-04-03T07:21:12;5.85;;;5.20;;
19969;SDS011;10146;47.754;9.566;2023-04-03T07:23:38;5.80;;;5.20;;
19969;SDS011;10146;47.754;9.566;2023-04-03T07:26:04;5.32;;;4.80;;
19969;SDS011;10146;47.754;9.566;2023-04-03T07:28:31;6.63;;;5.72;;
19969;SDS011;10146;47.754;9.566;2023-04-03T07:33:31;6.18;;;5.57;;
19969;SDS011;10146;47.754;9.566;2023-04-03T07:35:57;6.28;;;5.68;;
19969;SDS011;10146;47.754;9.566;2023-04-03T07:38:23;6.57;;;5.97;;
19969;SDS011;10146;47.754;9.566;2023-04-03T07:40:50;6.63;;;5.93;;
19969;SDS011;10146;47.754;9.566;2023-04-03T07:43:17;5.97;;;5.40;;
19969;SDS011;10146;47.754;9.566;2023-04-03T07:45:43;7.03;;;5.80;;
19969;SDS011;10146;47.754;9.566;2023-04-03T07:48:10;6.30;;;5.57;;
19969;SDS011;10146;47.754;9.566;2023-04-03T07:50:37;6.13;;;5.53;;
19969;SDS011;10146;47.754;9.566;2023-04-03T07:53:04;6.30;;;5.70;;
19969;SDS011;10146;47.754;9.566;2023-04-03T07:55:31;5.63;;;5.13;;
19969;SDS011;10146;47.754;9.566;2023-04-03T07:57:57;6.00;;;5.50;;
19969;SDS011;10146;47.754;9.566;2023-04-03T08:00:22;6.25;;;5.63;;
19969;SDS011;10146;47.754;9.566;2023-04-03T08:02:49;6.13;;;5.47;;
19969;SDS011;10146;47.754;9.566;2023-04-03T08:05:19;6.60;;;5.97;;
19969;SDS011;10146;47.754;9.566;2023-04-03T08:07:46;5.70;;;5.20;;
19969;SDS011;10146;47.754;9.566;2023-04-03T08:10:13;7.38;;;5.80;;
19969;SDS011;10146;47.754;9.566;2023-04-03T08:12:40;6.40;;;5.72;;
19969;SDS011;10146;47.754;9.566;2023-04-03T08:15:06;6.53;;;5.85;;
19969;SDS011;10146;47.754;9.566;2023-04-03T08:17:33;9.85;;;6.50;;
19969;SDS011;10146;47.754;9.566;2023-04-03T08:19:59;6.22;;;5.60;;
19969;SDS011;10146;47.754;9.566;2023-04-03T08:22:25;5.57;;;5.07;;
19969;SDS011;10146;47.754;9.566;2023-04-03T08:24:51;6.32;;;5.72;;
19969;SDS011;10146;47.754;9.566;2023-04-03T08:27:17;6.40;;;5.00;;
19969;SDS011;10146;47.754;9.566;2023-04-03T08:29:42;5.22;;;4.82;;
19969;SDS011;10146;47.754;9.566;2023-04-03T08:32:08;5.50;;;5.00;;
19969;SDS011;10146;47.754;9.566;2023-04-03T08:34:33;5.82;;;5.22;;
19969;SDS011;10146;47.754;9.566;2023-04-03T08:37:00;5.47;;;4.93;;
19969;SDS011;10146;47.754;9.566;2023-04-03T08:39:26;5.72;;;5.13;;
19969;SDS011;10146;47.754;9.566;2023-04-03T08:41:52;6.07;;;5.15;;
19969;SDS011;10146;47.754;9.566;2023-04-03T08:47:21;5.13;;;4.65;;
19969;SDS011;10146;47.754;9.566;2023-04-03T08:49:51;5.65;;;5.18;;
19969;SDS011;10146;47.754;9.566;2023-04-03T08:55:28;5.45;;;4.88;;
19969;SDS011;10146;47.754;9.566;2023-04-03T08:58:15;5.72;;;5.22;;
19969;SDS011;10146;47.754;9.566;2023-04-03T09:00:49;7.35;;;5.53;;
19969;SDS011;10146;47.754;9.566;2023-04-03T09:03:23;6.55;;;5.28;;
19969;SDS011;10146;47.754;9.566;2023-04-03T09:05:57;7.05;;;5.22;;
19969;SDS011;10146;47.754;9.566;2023-04-03T09:08:45;5.43;;;4.93;;
19969;SDS011;10146;47.754;9.566;2023-04-03T09:22:46;7.85;;;5.63;;
19969;SDS011;10146;47.754;9.566;2023-04-03T09:24:52;5.95;;;5.35;;
19969;SDS011;10146;47.754;9.566;2023-04-03T09:27:27;6.80;;;5.10;;
19969;SDS011;10146;47.754;9.566;2023-04-03T09:29:53;5.13;;;4.68;;
19969;SDS011;10146;47.754;9.566;2023-04-03T09:32:27;5.43;;;4.43;;
19969;SDS011;10146;47.754;9.566;2023-04-03T09:34:59;6.00;;;4.97;;
19969;SDS011;10146;47.754;9.566;2023-04-03T09:43:01;6.38;;;5.22;;
19969;SDS011;10146;47.754;9.566;2023-04-03T09:45:45;5.03;;;4.60;;
19969;SDS011;10146;47.754;9.566;2023-04-03T09:50:38;5.28;;;4.78;;
19969;SDS011;10146;47.754;9.566;2023-04-03T09:56:05;5.38;;;4.88;;
19969;SDS011;10146;47.754;9.566;2023-04-03T09:58:49;5.00;;;4.50;;
19969;SDS011;10146;47.754;9.566;2023-04-03T10:01:36;5.35;;;4.78;;
19969;SDS011;10146;47.754;9.566;2023-04-03T10:06:46;4.97;;;4.47;;
19969;SDS011;10146;47.754;9.566;2023-04-03T10:12:03;4.47;;;4.07;;
19969;SDS011;10146;47.754;9.566;2023-04-03T10:14:31;5.72;;;4.00;;
19969;SDS011;10146;47.754;9.566;2023-04-03T10:25:10;4.25;;;3.85;;
19969;SDS011;10146;47.754;9.566;2023-04-03T10:28:00;4.50;;;3.58;;
19969;SDS011;10146;47.754;9.566;2023-04-03T10:44:20;3.53;;;3.22;;
19969;SDS011;10146;47.754;9.566;2023-04-03T10:47:05;3.10;;;2.90;;
19969;SDS011;10146;47.754;9.566;2023-04-03T10:50:00;3.47;;;3.17;;
19969;SDS011;10146;47.754;9.566;2023-04-03T10:52:48;3.72;;;3.33;;
19969;SDS011;10146;47.754;9.566;2023-04-03T10:58:38;4.75;;;2.80;;
19969;SDS011;10146;47.754;9.566;2023-04-03T11:01:12;5.32;;;3.20;;
19969;SDS011;10146;47.754;9.566;2023-04-03T11:03:45;3.17;;;2.85;;
19969;SDS011;10146;47.754;9.566;2023-04-03T11:06:17;9.50;;;4.05;;
19969;SDS011;10146;47.754;9.566;2023-04-03T11:11:32;3.60;;;3.30;;
19969;SDS011;10146;47.754;9.566;2023-04-03T11:16:58;3.53;;;2.40;;
19969;SDS011;10146;47.754;9.566;2023-04-03T11:19:35;6.05;;;3.90;;
19969;SDS011;10146;47.754;9.566;2023-04-03T11:22:20;2.88;;;2.67;;
19969;SDS011;10146;47.754;9.566;2023-04-03T11:24:51;2.97;;;2.55;;
19969;SDS011;10146;47.754;9.566;2023-04-03T11:27:24;3.28;;;2.83;;
19969;SDS011;10146;47.754;9.566;2023-04-03T11:29:52;2.83;;;2.55;;
19969;SDS011;10146;47.754;9.566;2023-04-03T11:35:13;5.32;;;4.82;;
19969;SDS011;10146;47.754;9.566;2023-04-03T11:37:47;4.40;;;4.00;;
19969;SDS011;10146;47.754;9.566;2023-04-03T11:43:28;3.63;;;2.72;;
19969;SDS011;10146;47.754;9.566;2023-04-03T11:45:56;3.85;;;3.25;;
19969;SDS011;10146;47.754;9.566;2023-04-03T11:50:54;4.43;;;3.95;;
19969;SDS011;10146;47.754;9.566;2023-04-03T11:53:28;5.25;;;2.90;;
19969;SDS011;10146;47.754;9.566;2023-04-03T12:25:40;2.97;;;2.65;;
19969;SDS011;10146;47.754;9.566;2023-04-03T12:28:05;3.60;;;2.88;;
19969;SDS011;10146;47.754;9.566;2023-04-03T12:30:34;2.63;;;2.42;;
19969;SDS011;10146;47.754;9.566;2023-04-03T12:36:07;3.25;;;2.42;;
19969;SDS011;10146;47.754;9.566;2023-04-03T12:42:03;3.28;;;2.97;;
19969;SDS011;10146;47.754;9.566;2023-04-03T12:44:38;3.00;;;2.80;;
19969;SDS011;10146;47.754;9.566;2023-04-03T12:53:03;3.08;;;2.60;;
19969;SDS011;10146;47.754;9.566;2023-04-03T12:55:38;2.95;;;2.70;;
19969;SDS011;10146;47.754;9.566;2023-04-03T12:58:15;3.97;;;3.10;;
19969;SDS011;10146;47.754;9.566;2023-04-03T13:03:57;3.13;;;2.83;;
19969;SDS011;10146;47.754;9.566;2023-04-03T13:09:29;2.70;;;2.50;;
19969;SDS011;10146;47.754;9.566;2023-04-03T13:12:00;3.15;;;2.40;;
19969;SDS011;10146;47.754;9.566;2023-04-03T13:14:29;3.20;;;2.70;;
19969;SDS011;10146;47.754;9.566;2023-04-03T13:19:48;2.85;;;2.65;;
19969;SDS011;10146;47.754;9.566;2023-04-03T13:22:34;3.33;;;2.70;;
19969;SDS011;10146;47.754;9.566;2023-04-03T13:25:08;2.50;;;2.30;;
19969;SDS011;10146;47.754;9.566;2023-04-03T13:27:36;2.97;;;2.60;;
19969;SDS011;10146;47.754;9.566;2023-04-03T13:30:27;2.67;;;2.47;;
19969;SDS011;10146;47.754;9.566;2023-04-03T13:32:53;3.03;;;2.53;;
19969;SDS011;10146;47.754;9.566;2023-04-03T13:35:28;3.75;;;2.70;;
19969;SDS011;10146;47.754;9.566;2023-04-03T13:40:48;3.20;;;2.83;;
19969;SDS011;10146;47.754;9.566;2023-04-03T13:43:22;3.15;;;2.85;;
19969;SDS011;10146;47.754;9.566;2023-04-03T13:45:58;3.05;;;2.67;;
19969;SDS011;10146;47.754;9.566;2023-04-03T13:48:40;3.78;;;2.70;;
19969;SDS011;10146;47.754;9.566;2023-04-03T13:53:51;3.05;;;2.60;;
19969;SDS011;10146;47.754;9.566;2023-04-03T13:56:34;3.60;;;2.72;;
19969;SDS011;10146;47.754;9.566;2023-04-03T13:59:04;2.33;;;2.10;;
19969;SDS011;10146;47.754;9.566;2023-04-03T14:04:22;2.85;;;2.30;;
19969;SDS011;10146;47.754;9.566;2023-04-03T14:06:50;2.65;;;2.45;;
19969;SDS011;10146;47.754;9.566;2023-04-03T14:09:18;2.45;;;2.25;;
19969;SDS011;10146;47.754;9.566;2023-04-03T14:11:46;2.50;;;2.30;;
19969;SDS011;10146;47.754;9.566;2023-04-03T14:14:15;3.05;;;2.40;;
19969;SDS011;10146;47.754;9.566;2023-04-03T14:16:46;2.67;;;2.47;;
19969;SDS011;10146;47.754;9.566;2023-04-03T14:19:22;5.43;;;2.70;;
19969;SDS011;10146;47.754;9.566;2023-04-03T14:21:57;2.70;;;2.47;;
19969;SDS011;10146;47.754;9.566;2023-04-03T14:24:25;3.75;;;3.13;;
19969;SDS011;10146;47.754;9.566;2023-04-03T14:26:52;3.00;;;2.60;;
19969;SDS011;10146;47.754;9.566;2023-04-03T14:29:20;3.20;;;2.90;;
19969;SDS011;10146;47.754;9.566;2023-04-03T14:31:46;3.92;;;2.38;;
19969;SDS011;10146;47.754;9.566;2023-04-03T14:34:13;2.65;;;2.45;;
19969;SDS011;10146;47.754;9.566;2023-04-03T14:36:40;2.63;;;2.42;;
19969;SDS011;10146;47.754;9.566;2023-04-03T14:39:10;3.42;;;2.60;;
19969;SDS011;10146;47.754;9.566;2023-04-03T14:41:40;3.35;;;2.47;;
19969;SDS011;10146;47.754;9.566;2023-04-03T14:44:06;2.60;;;2.40;;
19969;SDS011;10146;47.754;9.566;2023-04-03T14:46:33;3.67;;;2.40;;
19969;SDS011;10146;47.754;9.566;2023-04-03T14:49:01;2.42;;;2.22;;
19969;SDS011;10146;47.754;9.566;2023-04-03T14:51:27;4.15;;;2.83;;
19969;SDS011;10146;47.754;9.566;2023-04-03T14:53:53;5.22;;;2.42;;
19969;SDS011;10146;47.754;9.566;2023-04-03T14:56:27;2.80;;;2.50;;
19969;SDS011;10146;47.754;9.566;2023-04-03T14:58:58;2.67;;;2.45;;
19969;SDS011;10146;47.754;9.566;2023-04-03T15:01:26;2.70;;;2.35;;
19969;SDS011;10146;47.754;9.566;2023-04-03T15:03:53;2.60;;;2.40;;
19969;SDS011;10146;47.754;9.566;2023-04-03T15:06:19;2.90;;;2.67;;
19969;SDS011;10146;47.754;9.566;2023-04-03T15:08:46;2.75;;;2.55;;
19969;SDS011;10146;47.754;9.566;2023-04-03T15:11:13;4.63;;;2.53;;
19969;SDS011;10146;47.754;9.566;2023-04-03T15:13:40;2.90;;;2.60;;
19969;SDS011;10146;47.754;9.566;2023-04-03T15:16:10;2.75;;;2.55;;
19969;SDS011;10146;47.754;9.566;2023-04-03T15:18:40;4.45;;;2.65;;
19969;SDS011;10146;47.754;9.566;2023-04-03T15:21:06;3.40;;;2.60;;
19969;SDS011;10146;47.754;9.566;2023-04-03T15:23:32;2.88;;;2.60;;
19969;SDS011;10146;47.754;9.566;2023-04-03T15:25:57;3.85;;;3.10;;
19969;SDS011;10146;47.754;9.566;2023-04-03T15:30:57;5.10;;;3.05;;
19969;SDS011;10146;47.754;9.566;2023-04-03T15:33:23;3.13;;;2.83;;
19969;SDS011;10146;47.754;9.566;2023-04-03T15:35:50;3.20;;;2.80;;
19969;SDS011;10146;47.754;9.566;2023-04-03T15:38:15;3.08;;;2.78;;
19969;SDS011;10146;47.754;9.566;2023-04-03T15:40:41;3.55;;;2.83;;
19969;SDS011;10146;47.754;9.566;2023-04-03T15:43:08;3.70;;;3.20;;
19969;SDS011;10146;47.754;9.566;2023-04-03T15:45:35;4.05;;;2.67;;
19969;SDS011;10146;47.754;9.566;2023-04-03T15:48:02;3.75;;;3.20;;
19969;SDS011;10146;47.754;9.566;2023-04-03T15:50:28;4.47;;;3.33;;
19969;SDS011;10146;47.754;9.566;2023-04-03T15:52:53;3.65;;;3.20;;
19969;SDS011;10146;47.754;9.566;2023-04-03T15:55:23;3.90;;;3.17;;
19969;SDS011;10146;47.754;9.566;2023-04-03T15:57:50;5.47;;;3.70;;
19969;SDS011;10146;47.754;9.566;2023-04-03T16:00:16;4.80;;;3.55;;
19969;SDS011;10146;47.754;9.566;2023-04-03T16:02:42;3.30;;;2.97;;
19969;SDS011;10146;47.754;9.566;2023-04-03T16:05:09;3.50;;;2.90;;
19969;SDS011;10146;47.754;9.566;2023-04-03T16:07:37;4.75;;;3.60;;
19969;SDS011;10146;47.754;9.566;2023-04-03T16:10:03;3.20;;;2.90;;
19969;SDS011;10146;47.754;9.566;2023-04-03T16:12:30;4.20;;;3.47;;
19969;SDS011;10146;47.754;9.566;2023-04-03T16:14:56;3.20;;;3.00;;
19969;SDS011;10146;47.754;9.566;2023-04-03T16:17:21;3.20;;;2.90;;
19969;SDS011;10146;47.754;9.566;2023-04-03T16:19:47;3.35;;;3.05;;
19969;SDS011;10146;47.754;9.566;2023-04-03T16:22:13;4.80;;;3.30;;
19969;SDS011;10146;47.754;9.566;2023-04-03T16:24:38;3.22;;;2.92;;
19969;SDS011;10146;47.754;9.566;2023-04-03T16:27:04;3.85;;;3.20;;
19969;SDS011;10146;47.754;9.566;2023-04-03T16:29:30;5.05;;;3.15;;
19969;SDS011;10146;47.754;9.566;2023-04-03T16:31:56;3.67;;;3.10;;
19969;SDS011;10146;47.754;9.566;2023-04-03T16:34:22;2.80;;;2.60;;
19969;SDS011;10146;47.754;9.566;2023-04-03T16:36:50;3.97;;;3.13;;
19969;SDS011;10146;47.754;9.566;2023-04-03T16:39:17;3.25;;;2.80;;
19969;SDS011;10146;47.754;9.566;2023-04-03T16:41:43;4.55;;;3.78;;
19969;SDS011;10146;47.754;9.566;2023-04-03T16:44:08;4.55;;;3.40;;
19969;SDS011;10146;47.754;9.566;2023-04-03T16:46:34;3.47;;;3.10;;
19969;SDS011;10146;47.754;9.566;2023-04-03T16:49:00;3.60;;;3.30;;
19969;SDS011;10146;47.754;9.566;2023-04-03T16:51:26;3.45;;;3.15;;
19969;SDS011;10146;47.754;9.566;2023-04-03T16:53:51;4.35;;;3.40;;
19969;SDS011;10146;47.754;9.566;2023-04-03T16:56:17;3.65;;;2.67;;
19969;SDS011;10146;47.754;9.566;2023-04-03T16:58:42;3.25;;;2.65;;
19969;SDS011;10146;47.754;9.566;2023-04-03T17:01:11;4.15;;;3.13;;
19969;SDS011;10146;47.754;9.566;2023-04-03T17:03:38;3.45;;;2.60;;
19969;SDS011;10146;47.754;9.566;2023-04-03T17:06:04;3.83;;;3.10;;
19969;SDS011;10146;47.754;9.566;2023-04-03T17:08:30;4.75;;;3.33;;
19969;SDS011;10146;47.754;9.566;2023-04-03T17:10:55;4.05;;;2.97;;
19969;SDS011;10146;47.754;9.566;2023-04-03T17:13:21;3.80;;;3.08;;
19969;SDS011;10146;47.754;9.566;2023-04-03T17:15:47;3.58;;;2.85;;